North Branch, MN (55056)

4:12 AM CDT on September 02, 2015 (GMT -0500)
Amador Township | | Change Station
CLOSE
Current Station
Personal Weather Station
Location: Almelund, MN
Elevation: 880 ft
Nearby Weather Stations

Elev 880 ft 45.55 °N, 92.80 °W | Updated 35 seconds ago

Thunderstorm
Thunderstorm
73.5 °F
Feels Like 73.5 °F
N
5.8
Wind Variable Wind from South
Gusts 5.8 mph

Today
High -- | Low -- °F
--% Chance of Precip.
Yesterday
High -- | Low -- °F
Precip. -- in
6:33 AM 7:47 PM
Waning Gibbous, 82% visible
Pressure 29.90 in
Visibility 10.0 miles
Clouds Scattered Clouds 3800 ft
Scattered Clouds 6500 ft
Mostly Cloudy 12000 ft
Dew Point 73 °F
Humidity 99%
Rainfall 0.17 in
Snow Depth Not available.
UV 0 out of 12
Pollen 9.70 out of 12
Air Quality Not available.
Flu Activity Not available.
METAR KROS 020856Z AUTO 21003KT 10SM -VCTSRA SCT038 SCT065 BKN120 23/22 A2990 RMK AO2 LTG DSNT NE THRU SW P0003 60006 T02320220
Pressure 29.90 in
Visibility 10.0 miles
Clouds Scattered Clouds 3800 ft
Scattered Clouds 6500 ft
Mostly Cloudy 12000 ft
Dew Point 73 °F
Humidity 99%
Rainfall 0.17 in
Snow Depth Not available.
UV 0 out of 12
Pollen 9.70 out of 12
Air Quality Not available.
Flu Activity Not available.
METAR KROS 020856Z AUTO 21003KT 10SM -VCTSRA SCT038 SCT065 BKN120 23/22 A2990 RMK AO2 LTG DSNT NE THRU SW P0003 60006 T02320220

10-Day Weather Forecast

×

Almanac

Astronomy

Sep. 02, 2015 Rise Set
Actual Time
Civil Twilight
Nautical Twilight
Astronomical Twilight
Moon
Length of Visible Light
Length of Day
Tomorrow will be .
, % of the Moon is Illuminated

Today's Extremes

State Highs State Lows

Community

WunderPhotos

Upload Photos

1,851,729 photos uploaded!

WunderBlogs® & News

Nearby

Air Quality

  Air Quality AQ Index Pollutant
Not available.

Snow Depth

Station Depth Elevation

Earthquake Activity

City Distance Mag. Time & Date
Minimum magnitude displayed is 2.5.

Coastal Water Temperatures

Place Temperature

Stations

Nearby Weather Stations

Station Location Temp. Windchill Dew Point Humidity Wind Precip. Elev Updated Type